sensor_id;sensor_type;location;lat;lon;timestamp;pressure;altitude;pressure_sealevel;temperature;humidity
75401;BME280;63974;47.538;18.972;2023-11-22T00:00:57;99888.69;;;7.16;100.00
75401;BME280;63974;47.538;18.972;2023-11-22T00:04:00;99895.00;;;7.14;100.00
75401;BME280;63974;47.538;18.972;2023-11-22T00:07:03;99895.97;;;7.13;100.00
75401;BME280;63974;47.538;18.972;2023-11-22T00:10:06;99886.56;;;7.04;100.00
75401;BME280;63974;47.538;18.972;2023-11-22T00:13:11;99895.66;;;7.16;100.00
75401;BME280;63974;47.538;18.972;2023-11-22T00:16:13;99898.75;;;7.19;100.00
75401;BME280;63974;47.538;18.972;2023-11-22T00:19:16;99906.13;;;7.14;100.00
75401;BME280;63974;47.538;18.972;2023-11-22T00:22:20;99908.88;;;7.21;100.00
75401;BME280;63974;47.538;18.972;2023-11-22T00:25:23;99906.66;;;7.26;100.00
75401;BME280;63974;47.538;18.972;2023-11-22T00:28:27;99905.69;;;7.27;100.00
75401;BME280;63974;47.538;18.972;2023-11-22T00:31:29;99890.53;;;7.32;100.00
75401;BME280;63974;47.538;18.972;2023-11-22T00:34:32;99887.63;;;7.35;100.00
75401;BME280;63974;47.538;18.972;2023-11-22T00:37:35;99878.09;;;7.27;100.00
75401;BME280;63974;47.538;18.972;2023-11-22T00:40:37;99891.34;;;7.32;100.00
75401;BME280;63974;47.538;18.972;2023-11-22T00:43:40;99896.00;;;7.29;100.00
75401;BME280;63974;47.538;18.972;2023-11-22T00:46:43;99888.41;;;7.27;100.00
75401;BME280;63974;47.538;18.972;2023-11-22T00:49:49;99890.19;;;7.27;100.00
75401;BME280;63974;47.538;18.972;2023-11-22T00:52:52;99902.47;;;7.25;100.00
75401;BME280;63974;47.538;18.972;2023-11-22T00:55:54;99900.03;;;7.23;100.00
75401;BME280;63974;47.538;18.972;2023-11-22T00:58:58;99894.38;;;7.20;100.00
75401;BME280;63974;47.538;18.972;2023-11-22T01:02:02;99899.66;;;7.10;100.00
75401;BME280;63974;47.538;18.972;2023-11-22T01:05:06;99899.31;;;7.05;100.00
75401;BME280;63974;47.538;18.972;2023-11-22T01:08:13;99903.34;;;7.00;100.00
75401;BME280;63974;47.538;18.972;2023-11-22T01:11:16;99905.06;;;6.91;100.00
75401;BME280;63974;47.538;18.972;2023-11-22T01:14:19;99904.28;;;6.91;100.00
75401;BME280;63974;47.538;18.972;2023-11-22T01:17:22;99901.69;;;6.91;100.00
75401;BME280;63974;47.538;18.972;2023-11-22T01:20:26;99903.31;;;6.92;100.00
75401;BME280;63974;47.538;18.972;2023-11-22T01:23:29;99907.50;;;6.93;100.00
75401;BME280;63974;47.538;18.972;2023-11-22T01:26:32;99905.88;;;6.92;100.00
75401;BME280;63974;47.538;18.972;2023-11-22T01:29:35;99908.00;;;6.96;100.00
75401;BME280;63974;47.538;18.972;2023-11-22T01:32:38;99907.34;;;6.94;100.00
75401;BME280;63974;47.538;18.972;2023-11-22T01:35:41;99904.28;;;6.99;100.00
75401;BME280;63974;47.538;18.972;2023-11-22T01:38:44;99904.28;;;6.99;100.00
75401;BME280;63974;47.538;18.972;2023-11-22T01:41:47;99910.41;;;6.98;100.00
75401;BME280;63974;47.538;18.972;2023-11-22T01:44:52;99917.22;;;7.07;100.00
75401;BME280;63974;47.538;18.972;2023-11-22T01:47:57;99905.94;;;7.00;100.00
75401;BME280;63974;47.538;18.972;2023-11-22T01:51:00;99916.06;;;7.01;100.00
75401;BME280;63974;47.538;18.972;2023-11-22T01:54:04;99922.78;;;6.86;100.00
75401;BME280;63974;47.538;18.972;2023-11-22T01:57:09;99915.38;;;6.83;100.00
75401;BME280;63974;47.538;18.972;2023-11-22T02:00:13;99924.06;;;6.82;100.00
75401;BME280;63974;47.538;18.972;2023-11-22T02:03:18;99921.94;;;6.78;100.00
75401;BME280;63974;47.538;18.972;2023-11-22T02:06:21;99934.22;;;6.84;100.00
75401;BME280;63974;47.538;18.972;2023-11-22T02:09:24;99926.66;;;6.82;100.00
75401;BME280;63974;47.538;18.972;2023-11-22T02:12:27;99929.19;;;6.74;100.00
75401;BME280;63974;47.538;18.972;2023-11-22T02:15:30;99944.16;;;6.71;100.00
75401;BME280;63974;47.538;18.972;2023-11-22T02:18:33;99942.41;;;6.71;100.00
75401;BME280;63974;47.538;18.972;2023-11-22T02:21:37;99958.00;;;6.70;100.00
75401;BME280;63974;47.538;18.972;2023-11-22T02:24:40;99957.88;;;6.71;100.00
75401;BME280;63974;47.538;18.972;2023-11-22T02:27:42;99951.56;;;6.66;100.00
75401;BME280;63974;47.538;18.972;2023-11-22T02:30:45;99947.81;;;6.60;100.00
75401;BME280;63974;47.538;18.972;2023-11-22T02:33:48;99954.91;;;6.66;100.00
75401;BME280;63974;47.538;18.972;2023-11-22T02:36:51;99954.56;;;6.61;100.00
75401;BME280;63974;47.538;18.972;2023-11-22T02:40:19;99955.53;;;6.60;100.00
75401;BME280;63974;47.538;18.972;2023-11-22T02:43:22;99962.78;;;6.57;100.00
75401;BME280;63974;47.538;18.972;2023-11-22T02:46:25;99958.88;;;6.53;100.00
75401;BME280;63974;47.538;18.972;2023-11-22T02:49:28;99956.31;;;6.53;100.00
75401;BME280;63974;47.538;18.972;2023-11-22T02:52:32;99954.69;;;6.52;100.00
75401;BME280;63974;47.538;18.972;2023-11-22T02:55:35;99956.97;;;6.55;100.00
75401;BME280;63974;47.538;18.972;2023-11-22T02:58:37;99961.75;;;6.50;100.00
75401;BME280;63974;47.538;18.972;2023-11-22T03:01:40;99960.50;;;6.54;100.00
75401;BME280;63974;47.538;18.972;2023-11-22T03:04:45;99960.63;;;6.53;100.00
75401;BME280;63974;47.538;18.972;2023-11-22T03:07:48;99969.19;;;6.53;100.00
75401;BME280;63974;47.538;18.972;2023-11-22T03:10:54;99971.91;;;6.52;100.00
75401;BME280;63974;47.538;18.972;2023-11-22T03:13:56;99971.81;;;6.61;100.00
75401;BME280;63974;47.538;18.972;2023-11-22T03:16:59;99974.13;;;6.64;100.00
75401;BME280;63974;47.538;18.972;2023-11-22T03:20:02;99973.81;;;6.67;100.00
75401;BME280;63974;47.538;18.972;2023-11-22T03:23:05;99978.38;;;6.55;100.00
75401;BME280;63974;47.538;18.972;2023-11-22T03:26:07;99975.88;;;6.63;100.00
75401;BME280;63974;47.538;18.972;2023-11-22T03:29:14;99974.03;;;6.56;100.00
75401;BME280;63974;47.538;18.972;2023-11-22T03:32:18;99981.13;;;6.54;100.00
75401;BME280;63974;47.538;18.972;2023-11-22T03:35:22;99984.81;;;6.52;100.00
75401;BME280;63974;47.538;18.972;2023-11-22T03:38:26;99986.09;;;6.48;100.00
75401;BME280;63974;47.538;18.972;2023-11-22T03:41:28;99982.22;;;6.52;100.00
75401;BME280;63974;47.538;18.972;2023-11-22T03:44:31;99981.94;;;6.37;100.00
75401;BME280;63974;47.538;18.972;2023-11-22T03:47:34;99988.59;;;6.40;100.00
75401;BME280;63974;47.538;18.972;2023-11-22T03:50:40;99997.38;;;6.47;100.00
75401;BME280;63974;47.538;18.972;2023-11-22T03:53:43;100013.06;;;6.36;100.00
75401;BME280;63974;47.538;18.972;2023-11-22T03:56:46;99998.81;;;6.32;100.00
75401;BME280;63974;47.538;18.972;2023-11-22T03:59:49;100002.66;;;6.28;100.00
75401;BME280;63974;47.538;18.972;2023-11-22T04:02:51;100009.09;;;6.24;100.00
75401;BME280;63974;47.538;18.972;2023-11-22T04:05:54;100012.19;;;6.27;100.00
75401;BME280;63974;47.538;18.972;2023-11-22T04:08:58;100016.66;;;6.25;100.00
75401;BME280;63974;47.538;18.972;2023-11-22T04:12:01;100019.09;;;6.09;100.00
75401;BME280;63974;47.538;18.972;2023-11-22T04:15:05;100010.41;;;6.10;100.00
75401;BME280;63974;47.538;18.972;2023-11-22T04:18:12;100007.03;;;6.10;100.00
75401;BME280;63974;47.538;18.972;2023-11-22T04:21:15;100010.06;;;6.05;100.00
75401;BME280;63974;47.538;18.972;2023-11-22T04:24:18;100014.53;;;6.03;100.00
75401;BME280;63974;47.538;18.972;2023-11-22T04:27:20;100021.16;;;6.06;100.00
75401;BME280;63974;47.538;18.972;2023-11-22T04:30:23;100037.06;;;6.01;100.00
75401;BME280;63974;47.538;18.972;2023-11-22T04:33:26;100019.25;;;5.90;100.00
75401;BME280;63974;47.538;18.972;2023-11-22T04:36:32;100037.50;;;5.97;100.00
75401;BME280;63974;47.538;18.972;2023-11-22T04:39:34;100041.47;;;5.91;100.00
75401;BME280;63974;47.538;18.972;2023-11-22T04:42:37;100042.94;;;5.94;100.00
75401;BME280;63974;47.538;18.972;2023-11-22T04:45:40;100046.25;;;6.04;100.00
75401;BME280;63974;47.538;18.972;2023-11-22T04:48:43;100054.44;;;5.99;100.00
75401;BME280;63974;47.538;18.972;2023-11-22T04:51:47;100055.78;;;6.03;100.00
75401;BME280;63974;47.538;18.972;2023-11-22T04:54:51;100073.13;;;6.01;100.00
75401;BME280;63974;47.538;18.972;2023-11-22T04:57:54;100065.13;;;6.04;100.00
75401;BME280;63974;47.538;18.972;2023-11-22T05:00:57;100076.47;;;6.11;100.00
75401;BME280;63974;47.538;18.972;2023-11-22T05:04:00;100068.91;;;6.10;100.00
75401;BME280;63974;47.538;18.972;2023-11-22T05:07:03;100075.81;;;6.09;100.00
75401;BME280;63974;47.538;18.972;2023-11-22T05:10:06;100083.00;;;6.06;100.00
75401;BME280;63974;47.538;18.972;2023-11-22T05:13:11;100080.34;;;5.98;100.00
75401;BME280;63974;47.538;18.972;2023-11-22T05:16:14;100086.31;;;5.98;100.00
75401;BME280;63974;47.538;18.972;2023-11-22T05:19:16;100081.25;;;6.06;100.00
75401;BME280;63974;47.538;18.972;2023-11-22T05:22:19;100091.47;;;5.98;100.00
75401;BME280;63974;47.538;18.972;2023-11-22T05:25:22;100091.81;;;5.86;100.00
75401;BME280;63974;47.538;18.972;2023-11-22T05:28:25;100093.28;;;5.88;100.00
75401;BME280;63974;47.538;18.972;2023-11-22T05:31:28;100110.50;;;5.88;100.00
75401;BME280;63974;47.538;18.972;2023-11-22T05:34:30;100114.28;;;5.93;100.00
75401;BME280;63974;47.538;18.972;2023-11-22T05:37:34;100124.19;;;5.88;100.00
75401;BME280;63974;47.538;18.972;2023-11-22T05:40:37;100130.13;;;5.98;100.00
75401;BME280;63974;47.538;18.972;2023-11-22T05:43:41;100135.31;;;5.89;100.00
75401;BME280;63974;47.538;18.972;2023-11-22T05:46:45;100138.19;;;5.86;100.00
75401;BME280;63974;47.538;18.972;2023-11-22T05:49:48;100152.81;;;5.85;100.00
75401;BME280;63974;47.538;18.972;2023-11-22T05:52:50;100149.72;;;5.72;100.00
75401;BME280;63974;47.538;18.972;2023-11-22T05:55:53;100154.88;;;5.72;100.00
75401;BME280;63974;47.538;18.972;2023-11-22T05:58:57;100160.13;;;5.44;100.00
75401;BME280;63974;47.538;18.972;2023-11-22T06:02:00;100162.28;;;5.48;100.00
75401;BME280;63974;47.538;18.972;2023-11-22T06:05:03;100171.53;;;5.41;100.00
75401;BME280;63974;47.538;18.972;2023-11-22T06:08:06;100171.69;;;5.30;100.00
75401;BME280;63974;47.538;18.972;2023-11-22T06:11:09;100187.63;;;5.34;100.00
75401;BME280;63974;47.538;18.972;2023-11-22T06:14:11;100197.66;;;5.46;100.00
75401;BME280;63974;47.538;18.972;2023-11-22T06:17:14;100190.59;;;5.48;100.00
75401;BME280;63974;47.538;18.972;2023-11-22T06:20:17;100203.50;;;5.20;100.00
75401;BME280;63974;47.538;18.972;2023-11-22T06:23:20;100209.47;;;5.30;100.00
75401;BME280;63974;47.538;18.972;2023-11-22T06:26:22;100203.78;;;5.26;100.00
75401;BME280;63974;47.538;18.972;2023-11-22T06:29:25;100213.28;;;5.26;100.00
75401;BME280;63974;47.538;18.972;2023-11-22T06:32:28;100207.44;;;5.33;100.00
75401;BME280;63974;47.538;18.972;2023-11-22T06:35:31;100225.59;;;5.41;100.00
75401;BME280;63974;47.538;18.972;2023-11-22T06:38:34;100226.69;;;5.29;100.00
75401;BME280;63974;47.538;18.972;2023-11-22T06:41:37;100248.34;;;5.36;100.00
75401;BME280;63974;47.538;18.972;2023-11-22T06:44:40;100245.63;;;5.28;100.00
75401;BME280;63974;47.538;18.972;2023-11-22T06:47:43;100252.97;;;5.14;100.00
75401;BME280;63974;47.538;18.972;2023-11-22T06:50:47;100263.53;;;5.11;100.00
75401;BME280;63974;47.538;18.972;2023-11-22T06:53:50;100280.03;;;5.18;100.00
75401;BME280;63974;47.538;18.972;2023-11-22T06:56:53;100275.03;;;5.26;100.00
75401;BME280;63974;47.538;18.972;2023-11-22T06:59:56;100288.31;;;5.21;100.00
75401;BME280;63974;47.538;18.972;2023-11-22T07:02:59;100309.97;;;5.28;100.00
75401;BME280;63974;47.538;18.972;2023-11-22T07:06:04;100299.00;;;5.17;100.00
75401;BME280;63974;47.538;18.972;2023-11-22T07:09:06;100314.06;;;5.21;100.00
75401;BME280;63974;47.538;18.972;2023-11-22T12:17:13;100571.06;;;7.45;91.97
75401;BME280;63974;47.538;18.972;2023-11-22T12:20:16;100574.44;;;7.55;93.13
75401;BME280;63974;47.538;18.972;2023-11-22T12:23:22;100580.56;;;7.45;93.56
75401;BME280;63974;47.538;18.972;2023-11-22T12:26:25;100549.25;;;7.21;93.30
75401;BME280;63974;47.538;18.972;2023-11-22T12:29:28;100588.59;;;7.42;93.05
75401;BME280;63974;47.538;18.972;2023-11-22T12:32:31;100572.19;;;7.33;92.87
75401;BME280;63974;47.538;18.972;2023-11-22T12:35:34;100581.53;;;7.44;93.94
75401;BME280;63974;47.538;18.972;2023-11-22T12:38:40;100588.75;;;7.40;94.33
75401;BME280;63974;47.538;18.972;2023-11-22T12:41:47;100594.31;;;7.36;93.19
75401;BME280;63974;47.538;18.972;2023-11-22T12:45:18;100597.03;;;7.44;93.16
75401;BME280;63974;47.538;18.972;2023-11-22T12:48:22;100591.91;;;7.34;92.52
75401;BME280;63974;47.538;18.972;2023-11-22T12:51:28;100597.19;;;7.42;93.00
75401;BME280;63974;47.538;18.972;2023-11-22T12:54:31;100606.28;;;7.46;92.15
75401;BME280;63974;47.538;18.972;2023-11-22T12:57:35;100596.06;;;7.54;90.25
75401;BME280;63974;47.538;18.972;2023-11-22T13:00:41;100605.28;;;7.57;90.18
75401;BME280;63974;47.538;18.972;2023-11-22T13:03:44;100601.84;;;7.66;89.32
75401;BME280;63974;47.538;18.972;2023-11-22T13:06:47;100601.25;;;7.72;89.74
75401;BME280;63974;47.538;18.972;2023-11-22T13:09:50;100609.72;;;7.74;90.43
75401;BME280;63974;47.538;18.972;2023-11-22T13:12:54;100603.28;;;7.78;88.58
75401;BME280;63974;47.538;18.972;2023-11-22T13:15:57;100602.91;;;7.73;87.44
75401;BME280;63974;47.538;18.972;2023-11-22T13:19:00;100613.38;;;7.71;86.00
75401;BME280;63974;47.538;18.972;2023-11-22T13:22:03;100625.88;;;7.76;87.58
75401;BME280;63974;47.538;18.972;2023-11-22T13:25:05;100628.19;;;7.79;87.22
75401;BME280;63974;47.538;18.972;2023-11-22T13:28:08;100641.22;;;7.77;86.93
75401;BME280;63974;47.538;18.972;2023-11-22T13:31:11;100648.72;;;7.80;87.43
75401;BME280;63974;47.538;18.972;2023-11-22T13:34:15;100656.28;;;7.91;87.33
75401;BME280;63974;47.538;18.972;2023-11-22T13:37:22;100653.66;;;8.01;87.22
75401;BME280;63974;47.538;18.972;2023-11-22T13:40:25;100661.72;;;7.98;87.57
75401;BME280;63974;47.538;18.972;2023-11-22T13:43:32;100652.81;;;7.73;89.94
75401;BME280;63974;47.538;18.972;2023-11-22T13:46:37;100670.66;;;7.67;90.36
75401;BME280;63974;47.538;18.972;2023-11-22T13:49:40;100673.13;;;7.68;90.87
75401;BME280;63974;47.538;18.972;2023-11-22T13:52:48;100666.31;;;7.67;91.49
75401;BME280;63974;47.538;18.972;2023-11-22T13:55:51;100680.97;;;7.76;92.52
75401;BME280;63974;47.538;18.972;2023-11-22T13:58:56;100683.69;;;7.75;93.25
75401;BME280;63974;47.538;18.972;2023-11-22T14:02:00;100672.22;;;7.87;93.22
75401;BME280;63974;47.538;18.972;2023-11-22T14:05:03;100681.06;;;7.84;93.81
75401;BME280;63974;47.538;18.972;2023-11-22T14:08:10;100701.47;;;7.87;94.44
75401;BME280;63974;47.538;18.972;2023-11-22T14:11:12;100692.38;;;7.83;94.00
75401;BME280;63974;47.538;18.972;2023-11-22T14:14:15;100705.16;;;7.85;94.08
75401;BME280;63974;47.538;18.972;2023-11-22T14:17:20;100708.84;;;7.82;93.36
75401;BME280;63974;47.538;18.972;2023-11-22T14:20:23;100685.78;;;7.62;93.95
75401;BME280;63974;47.538;18.972;2023-11-22T14:23:27;100715.69;;;7.64;94.08
75401;BME280;63974;47.538;18.972;2023-11-22T14:26:29;100715.00;;;7.62;94.48
75401;BME280;63974;47.538;18.972;2023-11-22T14:29:32;100721.16;;;7.52;96.29
75401;BME280;63974;47.538;18.972;2023-11-22T14:32:36;100720.63;;;7.39;96.14
75401;BME280;63974;47.538;18.972;2023-11-22T14:35:39;100725.81;;;7.39;96.22
75401;BME280;63974;47.538;18.972;2023-11-22T14:38:41;100732.63;;;7.30;96.31
75401;BME280;63974;47.538;18.972;2023-11-22T14:41:45;100739.81;;;7.27;96.52
75401;BME280;63974;47.538;18.972;2023-11-22T14:44:48;100731.25;;;7.17;96.50
75401;BME280;63974;47.538;18.972;2023-11-22T14:47:51;100745.78;;;7.18;95.60
75401;BME280;63974;47.538;18.972;2023-11-22T14:50:54;100745.91;;;7.16;96.14
75401;BME280;63974;47.538;18.972;2023-11-22T14:53:57;100751.34;;;7.13;96.08
75401;BME280;63974;47.538;18.972;2023-11-22T14:57:00;100750.13;;;7.08;95.49
75401;BME280;63974;47.538;18.972;2023-11-22T15:00:05;100756.94;;;7.09;95.61
75401;BME280;63974;47.538;18.972;2023-11-22T15:03:12;100766.47;;;7.08;95.27
75401;BME280;63974;47.538;18.972;2023-11-22T15:06:16;100772.56;;;7.07;94.27
75401;BME280;63974;47.538;18.972;2023-11-22T15:09:19;100774.31;;;7.07;94.76
75401;BME280;63974;47.538;18.972;2023-11-22T15:12:23;100765.63;;;6.98;95.40
75401;BME280;63974;47.538;18.972;2023-11-22T15:15:27;100766.16;;;6.92;95.99
75401;BME280;63974;47.538;18.972;2023-11-22T15:18:29;100769.28;;;6.86;95.40
75401;BME280;63974;47.538;18.972;2023-11-22T15:21:33;100768.03;;;6.81;95.09
75401;BME280;63974;47.538;18.972;2023-11-22T15:24:39;100779.03;;;6.73;94.93
75401;BME280;63974;47.538;18.972;2023-11-22T15:27:41;100783.06;;;6.66;95.07
75401;BME280;63974;47.538;18.972;2023-11-22T15:30:44;100778.34;;;6.71;94.93
75401;BME280;63974;47.538;18.972;2023-11-22T15:33:47;100778.47;;;6.60;95.56
75401;BME280;63974;47.538;18.972;2023-11-22T15:36:50;100796.78;;;6.57;96.25
75401;BME280;63974;47.538;18.972;2023-11-22T15:39:52;100805.31;;;6.58;96.92
75401;BME280;63974;47.538;18.972;2023-11-22T15:42:55;100801.00;;;6.58;97.28
75401;BME280;63974;47.538;18.972;2023-11-22T15:45:58;100787.09;;;6.50;97.93
75401;BME280;63974;47.538;18.972;2023-11-22T15:49:01;100801.88;;;6.48;98.26
75401;BME280;63974;47.538;18.972;2023-11-22T15:52:04;100798.75;;;6.45;97.70
75401;BME280;63974;47.538;18.972;2023-11-22T15:55:07;100797.28;;;6.42;97.49
75401;BME280;63974;47.538;18.972;2023-11-22T15:58:11;100818.41;;;6.36;96.56
75401;BME280;63974;47.538;18.972;2023-11-22T16:01:14;100833.97;;;6.25;96.40
75401;BME280;63974;47.538;18.972;2023-11-22T16:04:17;100813.09;;;6.08;96.89
75401;BME280;63974;47.538;18.972;2023-11-22T16:07:19;100835.06;;;6.02;96.79
75401;BME280;63974;47.538;18.972;2023-11-22T16:10:23;100831.63;;;5.92;96.55
75401;BME280;63974;47.538;18.972;2023-11-22T16:13:26;100850.72;;;5.90;96.07
75401;BME280;63974;47.538;18.972;2023-11-22T16:16:29;100845.69;;;5.77;96.52
75401;BME280;63974;47.538;18.972;2023-11-22T16:19:32;100849.25;;;5.65;97.51
75401;BME280;63974;47.538;18.972;2023-11-22T16:22:34;100847.44;;;5.56;97.32
75401;BME280;63974;47.538;18.972;2023-11-22T16:25:40;100848.44;;;5.44;97.01
75401;BME280;63974;47.538;18.972;2023-11-22T16:28:44;100859.34;;;5.37;96.48
75401;BME280;63974;47.538;18.972;2023-11-22T16:31:47;100871.16;;;5.28;96.23
75401;BME280;63974;47.538;18.972;2023-11-22T16:34:50;100874.25;;;5.22;95.90
75401;BME280;63974;47.538;18.972;2023-11-22T16:37:52;100887.72;;;5.15;95.99
75401;BME280;63974;47.538;18.972;2023-11-22T16:40:55;100900.09;;;5.10;96.01
75401;BME280;63974;47.538;18.972;2023-11-22T16:43:58;100898.13;;;5.02;96.76
75401;BME280;63974;47.538;18.972;2023-11-22T16:47:02;100913.81;;;4.99;96.48
75401;BME280;63974;47.538;18.972;2023-11-22T16:50:07;100907.63;;;4.91;96.54
75401;BME280;63974;47.538;18.972;2023-11-22T16:53:12;100915.81;;;4.85;96.46
75401;BME280;63974;47.538;18.972;2023-11-22T16:56:17;100919.81;;;4.78;96.18
75401;BME280;63974;47.538;18.972;2023-11-22T16:59:22;100933.34;;;4.69;95.98
75401;BME280;63974;47.538;18.972;2023-11-22T17:02:25;100933.44;;;4.67;95.81
75401;BME280;63974;47.538;18.972;2023-11-22T17:05:28;100931.25;;;4.63;95.76
75401;BME280;63974;47.538;18.972;2023-11-22T17:08:31;100924.66;;;4.48;95.81
75401;BME280;63974;47.538;18.972;2023-11-22T17:11:35;100944.28;;;4.49;95.83
75401;BME280;63974;47.538;18.972;2023-11-22T17:14:40;100950.50;;;4.46;95.80
75401;BME280;63974;47.538;18.972;2023-11-22T17:17:42;100933.88;;;4.28;95.90
75401;BME280;63974;47.538;18.972;2023-11-22T17:20:46;100966.59;;;4.37;96.21
75401;BME280;63974;47.538;18.972;2023-11-22T17:23:49;100961.47;;;4.37;95.83
75401;BME280;63974;47.538;18.972;2023-11-22T17:26:52;100977.94;;;4.35;96.10
75401;BME280;63974;47.538;18.972;2023-11-22T17:29:55;100975.13;;;4.27;96.33
75401;BME280;63974;47.538;18.972;2023-11-22T17:32:58;100988.78;;;4.28;96.84
75401;BME280;63974;47.538;18.972;2023-11-22T17:36:01;100988.41;;;4.21;96.77
75401;BME280;63974;47.538;18.972;2023-11-22T17:39:04;100992.47;;;4.13;97.05
75401;BME280;63974;47.538;18.972;2023-11-22T17:42:07;101003.06;;;4.08;97.40
75401;BME280;63974;47.538;18.972;2023-11-22T17:45:10;101018.25;;;4.11;97.29
75401;BME280;63974;47.538;18.972;2023-11-22T17:48:17;101015.50;;;4.14;97.11
75401;BME280;63974;47.538;18.972;2023-11-22T17:51:20;101014.06;;;4.10;96.69
75401;BME280;63974;47.538;18.972;2023-11-22T17:54:23;101016.06;;;4.18;95.78
75401;BME280;63974;47.538;18.972;2023-11-22T17:57:26;101044.75;;;4.35;95.82
75401;BME280;63974;47.538;18.972;2023-11-22T18:00:30;101048.53;;;4.42;95.67
75401;BME280;63974;47.538;18.972;2023-11-22T18:03:33;101044.81;;;4.46;94.97
75401;BME280;63974;47.538;18.972;2023-11-22T18:06:37;101031.94;;;4.46;94.56
75401;BME280;63974;47.538;18.972;2023-11-22T18:09:41;101029.41;;;4.57;93.76
75401;BME280;63974;47.538;18.972;2023-11-22T18:12:44;101038.53;;;4.61;94.32
75401;BME280;63974;47.538;18.972;2023-11-22T18:15:46;101047.53;;;4.55;93.73
75401;BME280;63974;47.538;18.972;2023-11-22T18:18:49;101040.97;;;4.51;93.60
75401;BME280;63974;47.538;18.972;2023-11-22T18:21:52;101043.31;;;4.54;93.44
75401;BME280;63974;47.538;18.972;2023-11-22T18:24:55;101032.59;;;4.60;93.67
75401;BME280;63974;47.538;18.972;2023-11-22T18:27:57;101050.81;;;4.57;93.17
75401;BME280;63974;47.538;18.972;2023-11-22T18:31:00;101060.13;;;4.47;93.99
75401;BME280;63974;47.538;18.972;2023-11-22T18:34:03;101065.00;;;4.39;93.95
75401;BME280;63974;47.538;18.972;2023-11-22T18:37:05;101083.38;;;4.46;93.87
75401;BME280;63974;47.538;18.972;2023-11-22T18:40:08;101092.50;;;4.50;93.33
75401;BME280;63974;47.538;18.972;2023-11-22T18:43:12;101089.59;;;4.54;93.30
75401;BME280;63974;47.538;18.972;2023-11-22T18:46:17;101091.78;;;4.48;93.29
75401;BME280;63974;47.538;18.972;2023-11-22T18:49:20;101100.72;;;4.55;93.26
75401;BME280;63974;47.538;18.972;2023-11-22T18:52:23;101107.59;;;4.54;93.55
75401;BME280;63974;47.538;18.972;2023-11-22T18:55:26;101128.63;;;4.48;92.15
75401;BME280;63974;47.538;18.972;2023-11-22T18:58:29;101128.84;;;4.45;91.79
75401;BME280;63974;47.538;18.972;2023-11-22T19:01:32;101135.25;;;4.40;91.84
75401;BME280;63974;47.538;18.972;2023-11-22T19:04:37;101143.75;;;4.40;91.48
75401;BME280;63974;47.538;18.972;2023-11-22T19:07:41;101146.41;;;4.28;90.54
75401;BME280;63974;47.538;18.972;2023-11-22T19:10:44;101140.81;;;4.34;90.42
75401;BME280;63974;47.538;18.972;2023-11-22T19:13:48;101151.25;;;4.20;89.72
75401;BME280;63974;47.538;18.972;2023-11-22T19:16:52;101150.09;;;4.24;90.08
75401;BME280;63974;47.538;18.972;2023-11-22T19:19:56;101159.97;;;4.18;89.73
75401;BME280;63974;47.538;18.972;2023-11-22T19:23:00;101153.22;;;4.17;90.19
75401;BME280;63974;47.538;18.972;2023-11-22T19:26:03;101166.28;;;4.14;90.83
75401;BME280;63974;47.538;18.972;2023-11-22T19:29:07;101168.00;;;4.13;90.84
75401;BME280;63974;47.538;18.972;2023-11-22T19:32:12;101187.38;;;4.06;90.14
75401;BME280;63974;47.538;18.972;2023-11-22T19:35:20;101191.88;;;4.03;90.55
75401;BME280;63974;47.538;18.972;2023-11-22T19:38:24;101184.34;;;4.12;89.72
75401;BME280;63974;47.538;18.972;2023-11-22T19:41:31;101176.91;;;3.97;90.27
75401;BME280;63974;47.538;18.972;2023-11-22T19:44:35;101196.22;;;4.02;90.59
75401;BME280;63974;47.538;18.972;2023-11-22T19:47:38;101196.31;;;4.01;90.59
75401;BME280;63974;47.538;18.972;2023-11-22T19:50:42;101165.94;;;3.82;90.67
75401;BME280;63974;47.538;18.972;2023-11-22T19:53:45;101199.63;;;3.90;89.66
75401;BME280;63974;47.538;18.972;2023-11-22T19:56:49;101222.00;;;3.88;89.78
75401;BME280;63974;47.538;18.972;2023-11-22T19:59:51;101213.50;;;3.88;89.95
75401;BME280;63974;47.538;18.972;2023-11-22T20:02:55;101207.25;;;3.79;89.51
75401;BME280;63974;47.538;18.972;2023-11-22T20:05:58;101221.31;;;3.74;90.13
75401;BME280;63974;47.538;18.972;2023-11-22T20:09:01;101212.47;;;3.78;89.98
75401;BME280;63974;47.538;18.972;2023-11-22T20:12:05;101209.19;;;3.76;89.84
75401;BME280;63974;47.538;18.972;2023-11-22T20:15:10;101198.91;;;3.76;89.73
75401;BME280;63974;47.538;18.972;2023-11-22T20:18:14;101189.13;;;3.81;89.85
75401;BME280;63974;47.538;18.972;2023-11-22T20:21:17;101196.66;;;3.71;90.11
75401;BME280;63974;47.538;18.972;2023-11-22T20:24:20;101193.38;;;3.69;90.30
75401;BME280;63974;47.538;18.972;2023-11-22T20:27:23;101211.13;;;3.72;90.41
75401;BME280;63974;47.538;18.972;2023-11-22T20:30:26;101223.75;;;3.75;90.03
75401;BME280;63974;47.538;18.972;2023-11-22T20:33:29;101213.91;;;3.69;89.73
75401;BME280;63974;47.538;18.972;2023-11-22T20:36:32;101229.84;;;3.62;90.16
75401;BME280;63974;47.538;18.972;2023-11-22T20:39:43;101218.72;;;3.61;89.95
75401;BME280;63974;47.538;18.972;2023-11-22T20:42:46;101218.94;;;3.58;90.61
75401;BME280;63974;47.538;18.972;2023-11-22T20:45:49;101224.28;;;3.55;90.12
75401;BME280;63974;47.538;18.972;2023-11-22T20:48:52;101234.75;;;3.65;90.08
75401;BME280;63974;47.538;18.972;2023-11-22T20:51:55;101239.28;;;3.61;90.83
75401;BME280;63974;47.538;18.972;2023-11-22T20:54:58;101236.06;;;3.58;91.00
75401;BME280;63974;47.538;18.972;2023-11-22T20:58:03;101225.41;;;3.64;90.32
75401;BME280;63974;47.538;18.972;2023-11-22T21:01:06;101235.91;;;3.61;90.55